Wednesday, August 23, 2017 (17:36 UTC)
OPMET DATA 
Terminal Aerodrome Forecast (TAF) and METAR
TAFs are issued by Aviation Meteorological Office, for Abu Dhabi (OMAA), Bateen (OMAD), Al Ain (OMAL), Dubai (OMDB), Al Maktoum (OMDW), Sharjah (OMSJ), Ras Al Khaimah (OMRK) and Fujairah (OMFJ) airports. These TAFs are issued every 6 hours and are valid for a 30 hour period. METARs (Aviation Routine Weather Reports) are updated hourly.
Show ICAO codes
Select OPMET type:        SEARCH   PRINT
Aviation Meteorology - National Center of Meteorology & Seismology (NCMS)
Telephone: +971 2 5757346 / 5053676
Email: metweb@adiamet.gov.ae
Website: www.avmet.ae
METAR OMAA 231700Z 36012KT CAVOK 36/25 Q1000 NOSIG=
METAR OMAD 231700Z 03008KT CAVOK 35/27 Q1000 NOSIG=
METAR OMAL 231700Z 08009KT CAVOK 36/21 Q1002 NOSIG=
METAR OMDB 231700Z 06008KT 020V100 CAVOK 36/19 Q1001 NOSIG=
METAR OMDW 231700Z 01010KT CAVOK 34/21 Q1001 BECMG 06005KT=
METAR OMFJ 231700Z 10005KT 8000 NSC 31/27 Q1002 RMK A2961=
METAR OMSJ 231700Z 06006KT CAVOK 34/21 Q1001=
METAR OMRK 231700Z 14008KT CAVOK 35/19 Q1001 A2957=
METAR OTBD 231700Z 05006KT 9000 NSC 35/29 Q1000 NOSIG=
METAR OTHH 231700Z 07011KT 8000 NSC 35/28 Q1000 NOSIG=
METAR OBBI 231700Z 09012KT CAVOK 36/27 Q1000 NOSIG=
METAR OEDF 231700Z 09013KT CAVOK 36/26 Q0999 NOSIG=
METAR OEDR 231700Z 07010KT CAVOK 36/27 Q0998 NOSIG=
METAR OEJN 231700Z 28006KT 9999 SCT040 33/25 Q0999 NOSIG=
METAR OEMA 231700Z 35004KT 9999 SCT045 41/00 Q1007 NOSIG=
METAR OEPA 231700Z 36018KT 4000 BLSA NSC 41/09 Q1003 NOSIG=
METAR OERF 231700Z 01009KT CAVOK 37/08 Q1006=
METAR OERK 231700Z 07005KT CAVOK 38/04 Q1005 NOSIG=
METAR OERR 231700Z 10004KT CAVOK 36/19 Q1008 NOSIG=
METAR OERY NIL=
METAR OESH 231700Z 05009KT 9999 FEW035 38/04 Q1003 NOSIG=
METAR OETB 231700Z 35007KT 9999 SCT040 37/08 Q1009 NOSIG=
METAR OETF 231700Z 02009KT CAVOK 33/04 Q1013 NOSIG=
METAR OETR 23170Z 28006KT CAVOK 33/11 Q1011=
METAR OEWD 231700Z 08004KT 9999 SCT030 40/19 Q1001 NOSIG=
METAR OEWJ 231700Z 32016KT 9000 NSC 31/26 Q1001 NOSIG=
METAR OEYN 231700Z 28018KT 6000 FEW040 SCT100 39/13 Q0998 NOSIG=
METAR OKBK 231700Z 15007KT 7000 SKC 37/25 Q1000 NOSIG=
METAR OOMS 231650Z 07011KT CAVOK 30/26 Q1001 NOSIG=
METAR OOSA 231650Z 23009KT 8000 FEW014 BKN025 27/25 Q1001 WS R07 NOSIG=
METAR OYSN NIL=
METAR OYAA NIL=
 
Wednesday, August 23, 2017 (17:36 UTC)